createdAt,value
2022-10-26T13:40:25.417Z,95388.56
2022-10-26T13:42:59.100Z,95390.50
2022-10-26T13:51:50.620Z,95387.25
2022-10-26T13:54:29.802Z,95388.91
2022-10-26T13:57:10.363Z,95383.28
2022-10-26T13:59:43.571Z,95390.78
2022-10-26T14:02:24.922Z,95384.31
2022-10-26T14:05:05.180Z,95403.22
2022-10-26T14:07:55.618Z,95385.69
2022-10-26T14:10:38.079Z,95396.63
2022-10-26T14:13:16.883Z,95400.25
2022-10-26T14:15:46.125Z,95399.38
2022-10-26T14:18:26.594Z,95400.69
2022-10-26T14:21:20.504Z,95399.00
2022-10-26T14:23:56.466Z,95398.34
2022-10-26T14:26:46.478Z,95394.50
2022-10-26T14:29:20.486Z,95403.44
2022-10-26T14:31:50.254Z,95405.50
2022-10-26T14:34:19.301Z,95407.72
2022-10-26T14:36:59.014Z,95407.56
2022-10-26T14:39:34.239Z,95401.19
2022-10-26T14:42:29.066Z,95406.34
2022-10-26T14:44:57.501Z,95402.94
2022-10-26T14:47:31.170Z,95404.63
2022-10-26T14:52:35.879Z,95406.88
2022-10-26T14:55:13.536Z,95404.50
2022-10-26T14:57:43.168Z,95406.94
2022-10-26T15:00:25.273Z,95406.44
2022-10-26T15:02:54.591Z,95396.81
2022-10-26T15:05:35.735Z,95403.00
2022-10-26T15:08:03.795Z,95414.81
2022-10-26T15:10:37.163Z,95410.28
2022-10-26T15:13:19.876Z,95430.31
2022-10-26T15:15:49.890Z,95425.25
2022-10-26T15:18:30.984Z,95427.66
2022-10-26T15:20:58.430Z,95427.97
2022-10-26T15:23:28.117Z,95430.41
2022-10-26T15:25:58.844Z,95434.44
2022-10-26T15:28:42.507Z,95437.09
2022-10-26T15:31:12.790Z,95431.50
2022-10-26T15:33:53.343Z,95431.50
2022-10-26T15:36:22.523Z,95431.25
2022-10-26T15:38:49.954Z,95428.59
2022-10-26T15:41:27.180Z,95433.44
2022-10-26T15:43:57.466Z,95434.81
2022-10-26T15:46:26.034Z,95441.53
2022-10-26T15:48:59.565Z,95428.38
2022-10-26T15:51:26.937Z,95437.56
2022-10-26T15:53:54.173Z,95433.75
2022-10-26T15:56:24.217Z,95446.94
2022-10-26T15:58:53.079Z,95454.72
2022-10-26T16:01:29.150Z,95446.41
2022-10-26T16:03:56.557Z,95455.50
2022-10-26T16:06:35.876Z,95461.09
2022-10-26T16:09:07.405Z,95469.66
2022-10-26T16:11:34.523Z,95459.97
2022-10-26T16:14:03.811Z,95477.44
2022-10-26T16:16:31.676Z,95476.88
2022-10-26T16:19:18.560Z,95483.31
2022-10-26T16:30:14.510Z,95501.78
2022-10-26T16:32:42.552Z,95500.47
2022-10-26T16:35:11.292Z,95503.94
2022-10-26T16:37:38.761Z,95492.94
2022-10-26T16:40:08.351Z,95483.88
2022-10-26T16:42:36.179Z,95489.22
2022-10-26T16:45:04.131Z,95485.44
2022-10-26T16:47:37.727Z,95494.31
2022-10-26T16:50:05.485Z,95504.75
2022-10-26T16:52:35.383Z,95513.63
2022-10-26T16:55:03.752Z,95507.97
2022-10-26T16:57:30.815Z,95511.53
2022-10-26T16:59:58.521Z,95512.81
2022-10-26T17:02:25.670Z,95513.69
2022-10-26T17:04:52.923Z,95513.44
2022-10-26T17:07:19.991Z,95512.41
2022-10-26T17:09:47.138Z,95512.72
2022-10-26T17:12:14.514Z,95520.22
2022-10-26T17:14:41.863Z,95522.88
2022-10-26T17:17:08.918Z,95513.81
2022-10-26T17:19:36.178Z,95515.44
2022-10-26T17:22:06.372Z,95521.31
2022-10-26T17:24:36.261Z,95522.16
2022-10-26T17:27:03.476Z,95516.50
2022-10-26T17:29:30.676Z,95530.16
2022-10-26T17:31:57.688Z,95534.44
2022-10-26T17:34:24.746Z,95536.28
2022-10-26T17:36:51.969Z,95537.66
2022-10-26T17:39:20.044Z,95531.69
2022-10-26T17:41:47.626Z,95545.63
2022-10-26T17:44:14.783Z,95547.81
2022-10-26T17:46:41.961Z,95545.03
2022-10-26T17:49:09.083Z,95558.19
2022-10-26T17:51:37.667Z,95558.97
2022-10-26T17:54:05.887Z,95571.59
2022-10-26T17:56:34.640Z,95577.50
2022-10-26T17:59:05.151Z,95578.81
2022-10-26T18:01:33.316Z,95568.81
2022-10-26T18:04:01.413Z,95584.16
2022-10-26T18:06:29.093Z,95582.53
2022-10-26T18:08:59.572Z,95583.00
2022-10-26T18:11:28.406Z,95595.38
2022-10-26T18:13:56.752Z,95580.03
2022-10-26T18:16:26.632Z,95596.19
2022-10-26T18:19:02.901Z,95594.00
2022-10-26T18:21:33.080Z,95610.59
2022-10-26T18:24:00.479Z,95602.84
2022-10-26T18:26:30.119Z,95603.38
2022-10-26T18:28:59.595Z,95611.41
2022-10-26T18:31:29.319Z,95615.13
2022-10-26T18:33:59.415Z,95607.03
2022-10-26T18:36:27.863Z,95606.06
2022-10-26T18:38:55.609Z,95614.06
2022-10-26T18:41:24.334Z,95615.38
2022-10-26T18:43:54.411Z,95623.97
2022-10-26T18:46:25.591Z,95621.28
2022-10-26T18:48:54.058Z,95624.75
2022-10-26T18:51:25.968Z,95622.34
2022-10-26T18:53:53.191Z,95624.22
2022-10-26T18:56:23.099Z,95609.41
2022-10-26T18:58:53.517Z,95626.06
2022-10-26T19:01:26.287Z,95617.78
2022-10-26T19:04:01.649Z,95611.03
2022-10-26T19:06:32.872Z,95622.59
2022-10-26T19:09:00.482Z,95618.56
2022-10-26T19:11:30.175Z,95624.22
2022-10-26T19:13:57.368Z,95628.41
2022-10-26T19:19:17.314Z,95641.03
2022-10-26T19:21:47.386Z,95644.50
2022-10-26T19:24:19.611Z,95641.84
2022-10-26T19:26:48.494Z,95636.50
2022-10-26T19:29:18.506Z,95633.19
2022-10-26T19:31:47.231Z,95632.13
2022-10-26T19:34:16.175Z,95639.16
2022-10-26T19:36:47.493Z,95635.06
2022-10-26T19:39:17.176Z,95628.91
2022-10-26T19:41:45.885Z,95631.28
2022-10-26T19:44:14.720Z,95645.34
2022-10-26T19:46:43.449Z,95635.38
2022-10-26T19:49:12.789Z,95651.47
2022-10-26T19:51:39.975Z,95655.44
2022-10-26T19:54:07.865Z,95651.09
2022-10-26T19:56:37.276Z,95664.19
2022-10-26T19:59:06.373Z,95667.75
2022-10-26T20:01:34.347Z,95670.69
2022-10-26T20:04:02.785Z,95676.25
2022-10-26T20:06:31.008Z,95669.22
2022-10-26T20:08:59.798Z,95696.88
2022-10-26T20:11:27.305Z,95676.75
2022-10-26T20:13:57.488Z,95682.97
2022-10-26T20:16:25.440Z,95678.91
2022-10-26T20:18:52.599Z,95682.72
2022-10-26T20:21:20.012Z,95676.00
2022-10-26T20:23:47.383Z,95680.31
2022-10-26T20:26:18.429Z,95681.59
2022-10-26T20:28:51.215Z,95690.16
2022-10-26T20:31:19.701Z,95672.97
2022-10-26T20:33:53.312Z,95683.47
2022-10-26T20:36:20.927Z,95681.34
2022-10-26T20:38:48.912Z,95681.59
2022-10-26T20:41:16.568Z,95688.31
2022-10-26T20:43:44.055Z,95686.44
2022-10-26T20:46:20.871Z,95687.50
2022-10-26T20:48:48.395Z,95684.03
2022-10-26T20:51:44.508Z,95698.69
2022-10-26T20:54:45.515Z,95699.75
2022-10-26T20:57:18.222Z,95704.81
2022-10-26T20:59:52.502Z,95701.34
2022-10-26T21:02:21.183Z,95700.22
2022-10-26T21:04:48.430Z,95712.03
2022-10-26T21:07:15.512Z,95707.97
2022-10-26T21:09:42.890Z,95712.84
2022-10-26T21:12:09.970Z,95701.75
2022-10-26T21:14:40.936Z,95717.59
2022-10-26T21:17:09.148Z,95723.53
2022-10-26T21:19:36.738Z,95731.53
2022-10-26T21:22:04.029Z,95713.03
2022-10-26T21:24:31.177Z,95730.16
2022-10-26T21:26:58.231Z,95729.13
2022-10-26T21:29:25.338Z,95733.97
2022-10-26T21:31:52.722Z,95733.41
2022-10-26T21:34:19.778Z,95726.44
2022-10-26T21:36:47.554Z,95737.13
2022-10-26T21:39:14.710Z,95741.19
2022-10-26T21:41:43.339Z,95732.84
2022-10-26T21:44:23.503Z,95732.25
2022-10-26T21:46:53.086Z,95746.78
2022-10-26T21:49:20.171Z,95736.09
2022-10-26T21:51:47.391Z,95738.66
2022-10-26T21:54:14.455Z,95737.34
2022-10-26T21:56:41.768Z,95738.75
2022-10-26T21:59:08.988Z,95740.84
2022-10-26T22:01:36.745Z,95745.69
2022-10-26T22:04:04.236Z,95738.19
2022-10-26T22:06:31.508Z,95740.03
2022-10-26T22:08:58.480Z,95738.44
2022-10-26T22:11:26.012Z,95739.47
2022-10-26T22:13:53.485Z,95746.19
2022-10-26T22:16:23.451Z,95745.94
2022-10-26T22:18:53.010Z,95741.91
2022-10-26T22:21:23.693Z,95737.84
2022-10-26T22:23:51.767Z,95745.16
2022-10-26T22:26:22.297Z,95749.66
2022-10-26T22:28:53.008Z,95749.44
2022-10-26T22:31:24.844Z,95738.09
2022-10-26T22:34:01.998Z,95752.34
2022-10-26T22:36:32.702Z,95743.53
2022-10-26T22:39:00.625Z,95748.88
2022-10-26T22:41:28.034Z,95745.88
2022-10-26T22:43:55.119Z,95750.72
2022-10-26T22:46:25.617Z,95741.00
2022-10-26T22:48:59.425Z,95748.88
2022-10-26T22:51:30.826Z,95740.78
2022-10-26T22:54:00.516Z,95754.22
2022-10-26T22:56:32.092Z,95753.38
2022-10-26T22:58:59.931Z,95743.66
2022-10-26T23:01:33.751Z,95755.97
2022-10-26T23:04:01.053Z,95758.72
2022-10-26T23:06:31.032Z,95762.22
2022-10-26T23:08:58.777Z,95757.34
2022-10-26T23:11:28.696Z,95765.94
2022-10-26T23:14:03.507Z,95767.81
2022-10-26T23:16:31.478Z,95755.44
2022-10-26T23:18:59.799Z,95773.94
2022-10-26T23:21:29.414Z,95782.75
2022-10-26T23:23:57.350Z,95769.31
2022-10-26T23:26:25.316Z,95770.94
2022-10-26T23:28:52.626Z,95774.19
2022-10-26T23:31:22.923Z,95780.09
2022-10-26T23:33:51.270Z,95776.03
2022-10-26T23:36:21.054Z,95779.28
2022-10-26T23:38:49.348Z,95787.56
2022-10-26T23:41:16.803Z,95781.38
2022-10-26T23:43:44.166Z,95772.81
2022-10-26T23:46:11.534Z,95774.44
2022-10-26T23:48:38.849Z,95776.28
2022-10-26T23:51:06.111Z,95766.91
2022-10-26T23:53:33.318Z,95763.91
2022-10-26T23:56:00.288Z,95784.06
2022-10-26T23:58:27.621Z,95786.72
